Terminal Aerodrome Forecast
Issued by NWS

Home | Current Version | Previous Version | Graphics & Text | Print | Product List | Glossary On
Versions: 1 2 3 4 5 6 7 8 9 10 11 12 13 14 15 16 17 18
000
FTUS43 KGRB 261223 AAA
TAFMTW
TAF AMD
KMTW 261223Z 2612/2712 00000KT 6SM BR SCT002 BKN090
     FM261400 00000KT P6SM BKN090 BKN120
     FM261700 14006KT P6SM BKN090
     FM262200 17006KT P6SM VCSH BKN050 BKN080
     FM270600 VRB02KT P6SM SCT080=

USA.gov is the U.S. government's official web portal to all federal, state and local government web resources and services.